createdAt,value
2024-04-06T00:01:26.912Z,97.62
2024-04-06T00:04:33.400Z,97.72
2024-04-06T00:07:39.664Z,97.62
2024-04-06T00:10:46.080Z,97.41
2024-04-06T00:13:52.346Z,97.21
2024-04-06T00:17:00.268Z,97.21
2024-04-06T00:20:06.771Z,97.31
2024-04-06T00:23:13.484Z,97.46
2024-04-06T00:26:20.216Z,97.66
2024-04-06T00:29:26.626Z,97.62
2024-04-06T00:32:34.376Z,97.41
2024-04-06T00:35:36.730Z,97.21
2024-04-06T00:38:43.450Z,96.91
2024-04-06T00:41:49.952Z,96.66
2024-04-06T00:44:56.389Z,96.35
2024-04-06T00:48:04.067Z,96.04
2024-04-06T00:51:10.542Z,96.15
2024-04-06T00:54:16.984Z,96.15
2024-04-06T00:57:23.534Z,96.15
2024-04-06T01:00:30.025Z,96.09
2024-04-06T01:03:36.847Z,96.19
2024-04-06T01:06:43.423Z,96.19
2024-04-06T01:09:50.203Z,96.34
2024-04-06T01:12:59.912Z,96.64
2024-04-06T01:16:06.223Z,97.09
2024-04-06T01:19:12.697Z,97.30
2024-04-06T01:22:19.532Z,97.50
2024-04-06T01:25:25.800Z,97.55
2024-04-06T01:28:32.146Z,97.86
2024-04-06T01:31:38.557Z,98.11
2024-04-06T01:34:45.900Z,98.21
2024-04-06T01:37:52.309Z,98.82
2024-04-06T01:40:58.800Z,99.23
2024-04-06T01:44:06.771Z,99.33
2024-04-06T01:47:13.182Z,99.54
2024-04-06T01:50:19.603Z,99.58
2024-04-06T01:53:26.021Z,99.79
2024-04-06T01:56:32.792Z,99.89
2024-04-06T01:59:39.378Z,99.89
2024-04-06T02:02:49.406Z,99.79
2024-04-06T02:05:56.526Z,99.89
2024-04-06T02:09:03.422Z,99.93
2024-04-06T02:12:11.611Z,99.84
2024-04-06T02:15:17.974Z,99.73
2024-04-06T02:18:24.354Z,99.99
2024-04-06T02:21:30.639Z,99.99
2024-04-06T02:24:36.843Z,99.99
2024-04-06T02:27:43.507Z,99.99
2024-04-06T02:30:49.915Z,99.99
2024-04-06T02:33:56.483Z,99.99
2024-04-06T02:37:02.935Z,99.99
2024-04-06T02:40:09.465Z,99.99
2024-04-06T02:43:17.198Z,99.99
2024-04-06T02:46:23.621Z,99.99
2024-04-06T02:49:30.168Z,99.99
2024-04-06T02:52:36.564Z,99.99
2024-04-06T02:55:42.990Z,99.99
2024-04-06T02:58:49.702Z,99.99
2024-04-06T03:01:55.954Z,99.99
2024-04-06T03:05:02.508Z,99.99
2024-04-06T03:08:08.842Z,99.99
2024-04-06T03:11:15.185Z,99.99
2024-04-06T03:14:23.023Z,99.99
2024-04-06T03:17:29.746Z,99.99
2024-04-06T03:20:36.439Z,99.99
2024-04-06T03:23:42.751Z,99.99
2024-04-06T03:26:49.505Z,99.99
2024-04-06T03:29:55.985Z,99.99
2024-04-06T03:33:02.604Z,99.99
2024-04-06T03:36:08.830Z,99.99
2024-04-06T03:39:15.463Z,99.99
2024-04-06T03:42:23.252Z,99.99
2024-04-06T03:45:29.720Z,99.99
2024-04-06T03:48:35.949Z,99.99
2024-04-06T03:51:42.206Z,99.99
2024-04-06T03:54:48.535Z,99.99
2024-04-06T03:57:55.295Z,99.99
2024-04-06T04:01:01.655Z,99.99
2024-04-06T04:04:08.366Z,99.99
2024-04-06T04:07:15.065Z,99.99
2024-04-06T04:10:23.044Z,99.99
2024-04-06T04:13:31.322Z,99.99
2024-04-06T04:16:38.136Z,99.99
2024-04-06T04:19:44.955Z,99.99
2024-04-06T04:22:51.955Z,99.99
2024-04-06T04:25:58.651Z,99.99
2024-04-06T04:29:05.897Z,99.99
2024-04-06T04:32:12.762Z,99.99
2024-04-06T04:35:19.309Z,99.99
2024-04-06T04:38:25.752Z,99.99
2024-04-06T04:41:33.284Z,99.99
2024-04-06T04:44:46.343Z,99.99
2024-04-06T04:47:42.665Z,99.99
2024-04-06T04:50:49.213Z,99.99
2024-04-06T04:53:56.018Z,99.99
2024-04-06T04:57:03.079Z,99.99
2024-04-06T05:00:09.750Z,99.99
2024-04-06T05:03:16.350Z,99.99
2024-04-06T05:06:22.667Z,99.99
2024-04-06T05:09:31.854Z,99.99
2024-04-06T05:12:33.866Z,99.99
2024-04-06T05:15:40.378Z,99.99
2024-04-06T05:18:46.837Z,99.99
2024-04-06T05:21:54.041Z,99.99
2024-04-06T05:25:03.185Z,99.99
2024-04-06T05:28:10.986Z,99.99
2024-04-06T05:31:17.293Z,99.99
2024-04-06T05:34:18.037Z,99.99
2024-04-06T05:37:25.196Z,99.99
2024-04-06T05:40:25.682Z,99.99
2024-04-06T05:43:33.666Z,99.99
2024-04-06T05:46:35.970Z,99.99
2024-04-06T05:49:43.758Z,99.99
2024-04-06T05:52:48.923Z,99.99
2024-04-06T05:55:57.477Z,99.99
2024-04-06T05:59:06.612Z,99.99
2024-04-06T06:02:07.801Z,99.99
2024-04-06T06:05:13.768Z,99.99
2024-04-06T06:08:20.870Z,99.99
2024-04-06T06:11:31.024Z,99.99
2024-04-06T06:14:43.774Z,99.99
2024-04-06T06:17:53.790Z,99.99
2024-04-06T06:21:00.667Z,99.99
2024-04-06T06:24:11.207Z,99.99
2024-04-06T06:27:19.102Z,99.99
2024-04-06T06:30:27.065Z,99.97
2024-04-06T06:33:36.934Z,99.77
2024-04-06T06:42:55.609Z,99.99
2024-04-06T06:45:59.270Z,99.82
2024-04-06T06:49:08.863Z,99.41
2024-04-06T06:52:17.791Z,99.16
2024-04-06T06:55:24.145Z,99.27
2024-04-06T06:58:24.705Z,98.86
2024-04-06T07:01:31.070Z,98.71
2024-04-06T07:04:37.249Z,98.36
2024-04-06T07:07:43.618Z,98.11
2024-04-06T07:10:50.126Z,97.60
2024-04-06T07:13:58.783Z,96.84
2024-04-06T07:17:07.890Z,96.70
2024-04-06T07:20:16.895Z,96.25
2024-04-06T07:23:24.286Z,95.39
2024-04-06T07:26:32.705Z,94.09
2024-04-06T07:29:42.130Z,91.75
2024-04-06T07:32:49.687Z,90.70
2024-04-06T07:35:57.305Z,88.53
2024-04-06T07:42:09.543Z,87.88
2024-04-06T07:45:17.897Z,88.15
2024-04-06T07:48:25.965Z,88.75
2024-04-06T07:51:27.144Z,88.04
2024-04-06T07:54:28.103Z,88.41
2024-04-06T07:57:36.855Z,88.01
2024-04-06T08:00:46.825Z,89.37
2024-04-06T08:03:52.546Z,87.96
2024-04-06T08:06:52.594Z,87.66
2024-04-06T08:10:01.267Z,87.82
2024-04-06T08:13:10.226Z,87.52
2024-04-06T08:16:20.415Z,87.78
2024-04-06T08:19:27.542Z,86.87
2024-04-06T08:22:28.173Z,85.62
2024-04-06T08:25:36.176Z,85.92
2024-04-06T08:28:45.745Z,84.77
2024-04-06T08:31:53.719Z,85.03
2024-04-06T08:35:01.664Z,84.39
2024-04-06T08:38:09.950Z,81.37
2024-04-06T08:41:18.461Z,81.93
2024-04-06T08:44:25.856Z,82.94
2024-04-06T08:47:26.447Z,79.64
2024-04-06T08:50:36.047Z,81.52
2024-04-06T08:53:37.212Z,79.67
2024-04-06T08:56:45.443Z,78.56
2024-04-06T08:59:47.195Z,76.72
2024-04-06T09:02:47.606Z,78.93
2024-04-06T09:05:57.771Z,79.39
2024-04-06T09:09:08.495Z,76.65
2024-04-06T09:12:18.935Z,75.48
2024-04-06T09:15:29.397Z,75.27
2024-04-06T09:18:40.011Z,75.82
2024-04-06T09:21:40.753Z,75.42
2024-04-06T09:24:42.571Z,77.39
2024-04-06T09:27:43.494Z,76.18
2024-04-06T09:30:45.893Z,75.45
2024-04-06T09:33:43.960Z,78.11
2024-04-06T09:36:44.376Z,74.80
2024-04-06T09:39:45.759Z,73.90
2024-04-06T09:42:46.694Z,73.50
2024-04-06T09:45:48.688Z,72.86
2024-04-06T09:48:57.847Z,74.77
2024-04-06T09:52:07.023Z,72.56
2024-04-06T09:55:13.286Z,72.66
2024-04-06T09:58:19.627Z,72.56
2024-04-06T10:01:27.506Z,72.06
2024-04-06T10:04:33.715Z,74.43
2024-04-06T10:07:40.055Z,73.43
2024-04-06T10:10:46.375Z,70.12
2024-04-06T10:13:52.697Z,69.93
2024-04-06T10:17:00.515Z,71.12
2024-04-06T10:20:06.894Z,71.03
2024-04-06T10:23:13.318Z,70.69
2024-04-06T10:26:21.073Z,72.66
2024-04-06T10:29:22.003Z,72.36
2024-04-06T10:32:30.980Z,73.76
2024-04-06T10:35:41.346Z,72.96
2024-04-06T10:38:49.234Z,71.86
2024-04-06T10:41:59.028Z,71.66
2024-04-06T10:45:00.328Z,73.36
2024-04-06T10:48:09.105Z,70.46
2024-04-06T10:51:09.689Z,74.56
2024-04-06T10:54:17.781Z,77.23
2024-04-06T10:57:24.185Z,72.29
2024-04-06T11:00:30.396Z,73.06
2024-04-06T11:03:36.737Z,71.33
2024-04-06T11:06:43.053Z,73.09
2024-04-06T11:09:49.520Z,73.58
2024-04-06T11:12:55.960Z,72.95
2024-04-06T11:16:03.861Z,74.35
2024-04-06T11:19:10.321Z,74.25
2024-04-06T11:22:16.843Z,75.51
2024-04-06T11:25:23.357Z,71.32
2024-04-06T11:28:29.720Z,73.38
2024-04-06T11:31:36.286Z,71.98
2024-04-06T11:34:42.844Z,74.44
2024-04-06T11:37:49.333Z,72.75
2024-04-06T11:40:55.681Z,69.66
2024-04-06T11:44:02.010Z,71.02
2024-04-06T11:47:09.823Z,68.63
2024-04-06T11:50:16.015Z,69.62
2024-04-06T11:53:22.134Z,69.92
2024-04-06T11:56:28.263Z,68.53
2024-04-06T11:59:35.916Z,70.39
2024-04-06T12:02:42.560Z,67.80
2024-04-06T12:05:49.176Z,67.57
2024-04-06T12:08:55.569Z,65.84
2024-04-06T12:12:01.982Z,69.62
2024-04-06T12:15:09.653Z,67.33
2024-04-06T12:18:15.990Z,68.33
2024-04-06T12:21:22.370Z,67.04
2024-04-06T12:24:28.656Z,67.24
2024-04-06T12:27:34.826Z,69.26
2024-04-06T12:30:41.162Z,68.40
2024-04-06T12:33:47.564Z,68.99
2024-04-06T12:36:53.990Z,70.09
2024-04-06T12:40:00.378Z,70.45
2024-04-06T12:43:06.760Z,69.66
2024-04-06T12:46:14.636Z,68.46
2024-04-06T12:49:21.084Z,69.85
2024-04-06T12:52:27.505Z,66.71
2024-04-06T12:55:33.868Z,69.09
2024-04-06T12:58:40.031Z,67.40
2024-04-06T13:01:46.403Z,65.58
2024-04-06T13:04:52.881Z,65.55
2024-04-06T13:07:59.317Z,66.11
2024-04-06T13:11:05.861Z,64.69
2024-04-06T13:14:12.430Z,63.10
2024-04-06T13:17:20.467Z,63.60
2024-04-06T13:20:26.853Z,63.46
2024-04-06T13:23:33.461Z,62.70
2024-04-06T13:26:40.087Z,62.67
2024-04-06T13:29:46.655Z,62.45
2024-04-06T13:32:53.591Z,62.05
2024-04-06T13:35:59.924Z,63.93
2024-04-06T13:39:07.031Z,61.75
2024-04-06T13:42:13.295Z,61.78
2024-04-06T13:45:21.253Z,63.17
2024-04-06T13:48:27.382Z,64.03
2024-04-06T13:51:33.493Z,63.64
2024-04-06T13:54:39.759Z,63.73
2024-04-06T13:57:46.198Z,63.07
2024-04-06T14:00:53.458Z,63.17
2024-04-06T14:04:00.625Z,63.37
2024-04-06T14:07:06.997Z,63.27
2024-04-06T14:10:13.453Z,63.57
2024-04-06T14:13:19.784Z,61.61
2024-04-06T14:16:27.587Z,63.70
2024-04-06T14:19:33.841Z,63.10
2024-04-06T14:22:40.214Z,64.19
2024-04-06T14:25:46.490Z,63.60
2024-04-06T14:28:53.053Z,62.50
2024-04-06T14:31:59.616Z,63.49
2024-04-06T14:35:06.053Z,62.30
2024-04-06T14:38:12.429Z,62.87
2024-04-06T14:41:18.805Z,62.67
2024-04-06T14:44:25.083Z,63.93
2024-04-06T14:47:33.340Z,64.62
2024-04-06T14:50:41.271Z,61.94
2024-04-06T14:53:47.811Z,62.74
2024-04-06T14:56:57.067Z,63.24
2024-04-06T15:00:03.332Z,64.13
2024-04-06T15:03:09.831Z,63.40
2024-04-06T15:06:16.121Z,63.51
2024-04-06T15:09:22.541Z,63.24
2024-04-06T15:12:28.966Z,64.62
2024-04-06T15:15:35.577Z,62.57
2024-04-06T15:18:43.600Z,64.79
2024-04-06T15:21:49.963Z,65.31
2024-04-06T15:24:56.436Z,65.52
2024-04-06T15:28:02.991Z,64.45
2024-04-06T15:31:09.094Z,63.46
2024-04-06T15:34:15.406Z,64.55
2024-04-06T15:37:21.827Z,65.05
2024-04-06T15:40:28.113Z,64.98
2024-04-06T15:43:34.544Z,64.58
2024-04-06T15:46:42.339Z,63.49
2024-04-06T15:49:48.834Z,63.59
2024-04-06T15:52:55.147Z,63.19
2024-04-06T15:56:01.501Z,62.72
2024-04-06T15:59:08.076Z,63.62
2024-04-06T16:02:14.745Z,64.01
2024-04-06T16:05:21.458Z,63.92
2024-04-06T16:08:27.758Z,64.22
2024-04-06T16:11:34.269Z,64.42
2024-04-06T16:14:40.543Z,63.45
2024-04-06T16:17:48.310Z,63.65
2024-04-06T16:20:54.700Z,62.15
2024-04-06T16:24:00.930Z,62.05
2024-04-06T16:27:07.124Z,60.76
2024-04-06T16:30:15.846Z,60.99
2024-04-06T16:33:13.587Z,60.59
2024-04-06T16:36:20.090Z,61.39
2024-04-06T16:39:26.619Z,62.12
2024-04-06T16:42:33.077Z,62.71
2024-04-06T16:45:39.459Z,62.94
2024-04-06T16:48:47.234Z,63.14
2024-04-06T16:51:53.569Z,63.57
2024-04-06T16:54:59.975Z,64.27
2024-04-06T16:58:06.389Z,65.10
2024-04-06T17:01:12.780Z,66.13
2024-04-06T17:04:19.136Z,67.06
2024-04-06T17:07:25.677Z,67.66
2024-04-06T17:10:32.510Z,68.79
2024-04-06T17:13:38.791Z,69.02
2024-04-06T17:16:46.735Z,69.62
2024-04-06T17:19:53.370Z,70.06
2024-04-06T17:22:59.886Z,70.69
2024-04-06T17:26:06.539Z,71.19
2024-04-06T17:29:13.282Z,71.83
2024-04-06T17:32:15.460Z,71.83
2024-04-06T17:35:22.559Z,72.47
2024-04-06T17:38:30.405Z,72.16
2024-04-06T17:41:36.826Z,72.50
2024-04-06T17:44:43.826Z,73.00
2024-04-06T17:47:53.175Z,73.24
2024-04-06T17:51:02.337Z,73.33
2024-04-06T17:54:08.610Z,72.67
2024-04-06T17:57:15.078Z,72.37
2024-04-06T18:00:21.419Z,72.17
2024-04-06T18:03:27.667Z,72.06
2024-04-06T18:06:36.815Z,72.71
2024-04-06T18:09:43.434Z,71.70
2024-04-06T18:12:49.848Z,71.33
2024-04-06T18:15:56.270Z,71.53
2024-04-06T18:19:04.827Z,71.53
2024-04-06T18:22:12.579Z,72.03
2024-04-06T18:25:21.409Z,72.57
2024-04-06T18:28:29.439Z,72.07
2024-04-06T18:31:36.366Z,72.37
2024-04-06T18:34:43.052Z,72.17
2024-04-06T18:37:49.589Z,72.07
2024-04-06T18:40:56.325Z,72.41
2024-04-06T18:44:02.743Z,72.81
2024-04-06T18:47:10.738Z,73.55
2024-04-06T18:50:17.144Z,75.35
2024-04-06T18:53:23.645Z,76.40
2024-04-06T18:56:30.027Z,75.49
2024-04-06T18:59:36.452Z,75.53
2024-04-06T19:02:43.204Z,75.33
2024-04-06T19:05:49.515Z,76.14
2024-04-06T19:08:56.194Z,77.17
2024-04-06T19:12:02.611Z,78.02
2024-04-06T19:15:08.868Z,79.83
2024-04-06T19:18:17.106Z,79.67
2024-04-06T19:21:23.483Z,79.91
2024-04-06T19:24:30.383Z,80.96
2024-04-06T19:27:37.256Z,80.55
2024-04-06T19:30:43.822Z,79.14
2024-04-06T19:33:50.441Z,78.84
2024-04-06T19:36:57.158Z,79.94
2024-04-06T19:40:03.703Z,79.54
2024-04-06T19:43:10.068Z,78.84
2024-04-06T19:46:16.750Z,78.94
2024-04-06T19:49:24.952Z,78.84
2024-04-06T19:52:31.942Z,77.32
2024-04-06T19:55:38.952Z,76.82
2024-04-06T19:58:48.563Z,75.91
2024-04-06T20:01:57.164Z,75.40
2024-04-06T20:05:04.090Z,76.01
2024-04-06T20:08:11.007Z,76.31
2024-04-06T20:11:18.012Z,75.91
2024-04-06T20:14:25.223Z,76.42
2024-04-06T20:17:33.295Z,76.11
2024-04-06T20:20:39.969Z,75.91
2024-04-06T20:23:46.865Z,75.51
2024-04-06T20:26:53.561Z,74.19
2024-04-06T20:30:00.293Z,73.69
2024-04-06T20:33:06.924Z,73.79
2024-04-06T20:36:13.754Z,72.85
2024-04-06T20:39:20.727Z,72.88
2024-04-06T20:42:28.015Z,72.78
2024-04-06T20:45:34.998Z,72.48
2024-04-06T20:48:43.206Z,73.99
2024-04-06T20:51:49.902Z,74.22
2024-04-06T20:54:56.713Z,74.97
2024-04-06T20:58:03.500Z,75.37
2024-04-06T21:01:10.594Z,75.07
2024-04-06T21:04:17.530Z,74.80
2024-04-06T21:07:24.568Z,73.25
2024-04-06T21:10:31.291Z,72.85
2024-04-06T21:13:38.216Z,72.91
2024-04-06T21:16:44.906Z,73.05
2024-04-06T21:19:53.149Z,73.66
2024-04-06T21:22:59.940Z,74.26
2024-04-06T21:26:06.774Z,73.86
2024-04-06T21:29:13.410Z,73.96
2024-04-06T21:32:20.110Z,74.06
2024-04-06T21:35:26.730Z,74.06
2024-04-06T21:38:33.513Z,73.86
2024-04-06T21:41:40.323Z,74.16
2024-04-06T21:44:47.238Z,74.26
2024-04-06T21:47:55.413Z,74.60
2024-04-06T21:51:02.170Z,75.01
2024-04-06T21:54:08.740Z,75.21
2024-04-06T21:57:16.169Z,75.95
2024-04-06T22:00:22.904Z,76.76
2024-04-06T22:03:29.741Z,76.59
2024-04-06T22:06:36.368Z,76.59
2024-04-06T22:09:43.131Z,76.19
2024-04-06T22:12:49.780Z,75.99
2024-04-06T22:15:56.328Z,75.48
2024-04-06T22:19:04.289Z,74.77
2024-04-06T22:22:11.163Z,73.05
2024-04-06T22:25:17.968Z,70.56
2024-04-06T22:28:27.486Z,69.42
2024-04-06T22:31:34.904Z,66.65
2024-04-06T22:34:41.707Z,65.68
2024-04-06T22:37:48.445Z,64.67
2024-04-06T22:40:55.108Z,64.34
2024-04-06T22:44:01.933Z,65.05
2024-04-06T22:47:08.745Z,65.95
2024-04-06T22:50:16.944Z,65.65
2024-04-06T22:53:23.266Z,67.40
2024-04-06T22:56:30.026Z,68.21
2024-04-06T22:59:36.647Z,68.81
2024-04-06T23:02:43.595Z,68.84
2024-04-06T23:05:50.400Z,68.74
2024-04-06T23:08:56.862Z,68.95
2024-04-06T23:12:03.463Z,69.04
2024-04-06T23:15:10.181Z,69.45
2024-04-06T23:18:18.385Z,69.35
2024-04-06T23:21:25.228Z,69.65
2024-04-06T23:24:31.736Z,69.98
2024-04-06T23:27:38.537Z,70.89
2024-04-06T23:30:45.154Z,70.62
2024-04-06T23:33:51.513Z,71.03
2024-04-06T23:37:01.536Z,71.84
2024-04-06T23:39:58.706Z,71.77
2024-04-06T23:43:05.463Z,71.57
2024-04-06T23:46:12.400Z,71.06
2024-04-06T23:49:20.607Z,71.37
2024-04-06T23:52:27.331Z,71.57
2024-04-06T23:55:34.100Z,71.09
2024-04-06T23:58:40.950Z,70.79
